Terminal Aerodrome Forecast
Issued by NWS

Home | Current Version | Previous Version | Text Only | Print | Product List | Glossary On
Versions: 1 2 3 4 5 6 7 8 9 10 11 12 13 14 15 16 17 18
000
FTUS46 KOTX 230534
TAFCOE
TAF
KCOE 230534Z 2306/2406 20005KT P6SM SCT022 SCT050
     FM230800 VRB03KT P6SM OVC015
     FM231500 07005KT P6SM SCT020 OVC150
     FM231900 06006KT P6SM OVC070
     FM232100 09007KT 6SM -SN OVC030
     FM240200 10009KT 1SM -SN OVC015=

USA.gov is the U.S. government's official web portal to all federal, state and local government web resources and services.